Time;durP1;ratioP1;P1;durP2;ratioP2;P2;SDS_P1;SDS_P2;PMS_P1;PMS_P2;Temp;Humidity;BMP_temperature;BMP_pressure;BME280_temperature;BME280_humidity;BME280_pressure;Samples;Min_cycle;Max_cycle;Signal;HPM_P1;HPM_P2
2023/05/07 00:00:33;;;;;;;4.60;2.67;;;;;;;;;;5008393;28;20048;-65
2023/05/07 00:02:58;;;;;;;3.55;2.53;;;;;;;;;;5025698;28;20545;-74
2023/05/07 00:05:24;;;;;;;2.80;2.17;;;;;;;;;;5016546;28;20035;-70
2023/05/07 00:07:50;;;;;;;2.78;2.33;;;;;;;;;;5035958;28;20554;-72
2023/05/07 00:10:15;;;;;;;3.47;2.22;;;;;;;;;;5015142;28;20052;-74
2023/05/07 00:12:40;;;;;;;3.72;2.60;;;;;;;;;;5007417;28;20001;-69
2023/05/07 00:15:06;;;;;;;3.05;2.30;;;;;;;;;;4990295;28;20033;-73
2023/05/07 00:17:32;;;;;;;3.40;2.10;;;;;;;;;;5034620;28;20020;-72
2023/05/07 00:19:57;;;;;;;3.55;2.55;;;;;;;;;;5039677;28;20008;-72
2023/05/07 00:22:23;;;;;;;3.77;2.03;;;;;;;;;;5004897;28;20493;-64
2023/05/07 00:24:48;;;;;;;2.67;2.10;;;;;;;;;;5041822;28;20255;-67
2023/05/07 00:27:13;;;;;;;3.03;2.28;;;;;;;;;;5026835;28;20283;-74
2023/05/07 00:29:38;;;;;;;3.43;2.40;;;;;;;;;;5028329;28;20307;-77
2023/05/07 00:32:04;;;;;;;2.78;2.08;;;;;;;;;;5043226;28;20296;-66
2023/05/07 00:34:29;;;;;;;3.42;2.15;;;;;;;;;;5001486;28;20056;-68
2023/05/07 00:36:54;;;;;;;3.25;2.47;;;;;;;;;;5011275;28;20006;-66
2023/05/07 00:39:20;;;;;;;2.95;2.38;;;;;;;;;;5021969;28;20064;-73
2023/05/07 00:41:45;;;;;;;3.42;2.50;;;;;;;;;;5007614;28;20455;-74
2023/05/07 00:44:11;;;;;;;2.95;2.20;;;;;;;;;;5007543;28;20113;-67
2023/05/07 00:46:36;;;;;;;3.03;2.25;;;;;;;;;;5010899;28;20075;-74
2023/05/07 00:49:01;;;;;;;3.03;2.40;;;;;;;;;;5005136;28;20013;-75
2023/05/07 00:51:27;;;;;;;2.50;1.90;;;;;;;;;;5012364;28;20095;-70
2023/05/07 00:53:52;;;;;;;3.45;2.17;;;;;;;;;;5023844;28;20874;-68
2023/05/07 00:56:18;;;;;;;2.50;2.00;;;;;;;;;;5023283;28;20083;-74
2023/05/07 00:58:43;;;;;;;2.70;2.13;;;;;;;;;;5023639;28;20025;-64
2023/05/07 01:01:08;;;;;;;2.97;2.17;;;;;;;;;;5017852;28;20018;-74
2023/05/07 01:03:33;;;;;;;2.58;2.13;;;;;;;;;;5021644;28;20021;-66
2023/05/07 01:06:05;;;;;;;3.33;2.20;;;;;;;;;;5011198;28;20046;-64
2023/05/07 01:08:30;;;;;;;3.33;2.00;;;;;;;;;;5014662;28;20029;-73
2023/05/07 01:10:56;;;;;;;3.28;2.13;;;;;;;;;;5004207;28;20034;-79
2023/05/07 01:13:21;;;;;;;3.70;2.25;;;;;;;;;;5003842;28;20026;-66
2023/05/07 01:15:46;;;;;;;3.03;2.13;;;;;;;;;;5023162;28;20034;-73
2023/05/07 01:18:11;;;;;;;2.80;2.10;;;;;;;;;;5025568;28;20648;-68
2023/05/07 01:20:37;;;;;;;3.17;2.10;;;;;;;;;;5036778;28;20373;-60
2023/05/07 01:23:02;;;;;;;3.17;2.40;;;;;;;;;;5015937;28;20281;-69
2023/05/07 01:25:27;;;;;;;3.20;2.17;;;;;;;;;;5021901;28;20413;-74
2023/05/07 01:27:52;;;;;;;3.03;2.20;;;;;;;;;;5023054;28;20272;-63
2023/05/07 01:30:18;;;;;;;2.80;2.10;;;;;;;;;;5007231;28;20683;-72
2023/05/07 01:32:56;;;;;;;2.90;2.22;;;;;;;;;;5023260;28;20371;-72
2023/05/07 01:35:22;;;;;;;2.30;2.10;;;;;;;;;;5016528;28;20043;-69
2023/05/07 01:37:48;;;;;;;2.92;2.05;;;;;;;;;;5002474;28;20049;-71
2023/05/07 01:40:13;;;;;;;3.25;2.30;;;;;;;;;;5006129;28;20576;-70
2023/05/07 01:42:38;;;;;;;2.78;2.15;;;;;;;;;;5002960;28;20488;-74
2023/05/07 01:45:04;;;;;;;3.17;2.37;;;;;;;;;;5004822;28;20030;-74
2023/05/07 01:47:29;;;;;;;3.15;2.05;;;;;;;;;;5005002;28;20365;-73
2023/05/07 01:49:54;;;;;;;2.63;2.17;;;;;;;;;;4986715;28;20099;-68
2023/05/07 01:52:19;;;;;;;3.07;2.30;;;;;;;;;;4985664;28;20117;-67
2023/05/07 01:54:45;;;;;;;2.87;2.10;;;;;;;;;;5002312;28;20300;-69
2023/05/07 01:57:10;;;;;;;3.08;2.17;;;;;;;;;;5005350;28;20291;-74
2023/05/07 01:59:35;;;;;;;3.53;2.37;;;;;;;;;;5003590;28;20018;-76
2023/05/07 02:02:00;;;;;;;2.67;2.03;;;;;;;;;;5004588;28;20372;-61
2023/05/07 02:04:26;;;;;;;2.70;2.10;;;;;;;;;;5004511;28;20754;-71
2023/05/07 02:06:52;;;;;;;2.58;2.10;;;;;;;;;;4999685;28;20714;-75
2023/05/07 02:09:17;;;;;;;2.95;2.20;;;;;;;;;;4998818;28;20439;-68
2023/05/07 02:11:43;;;;;;;2.90;2.10;;;;;;;;;;5002720;28;20102;-68
2023/05/07 02:14:08;;;;;;;2.80;2.13;;;;;;;;;;5002210;28;20765;-64
2023/05/07 02:16:33;;;;;;;2.70;2.07;;;;;;;;;;5003569;28;20272;-73
2023/05/07 02:18:58;;;;;;;3.17;2.47;;;;;;;;;;4985921;28;20621;-72
2023/05/07 02:21:24;;;;;;;2.65;2.13;;;;;;;;;;5004124;28;20812;-65
2023/05/07 02:23:50;;;;;;;2.67;1.90;;;;;;;;;;4988440;28;20066;-72
2023/05/07 02:26:15;;;;;;;3.05;2.38;;;;;;;;;;5005171;28;20173;-72
2023/05/07 02:28:40;;;;;;;3.60;2.33;;;;;;;;;;5008494;28;20088;-78
2023/05/07 02:31:06;;;;;;;2.80;2.08;;;;;;;;;;5004502;28;20454;-67
2023/05/07 02:33:31;;;;;;;3.43;2.30;;;;;;;;;;5004285;28;20375;-67
2023/05/07 02:35:56;;;;;;;3.13;2.10;;;;;;;;;;5006042;28;20280;-74
2023/05/07 02:38:22;;;;;;;3.08;2.10;;;;;;;;;;5007885;28;20084;-66
2023/05/07 02:40:47;;;;;;;2.75;2.10;;;;;;;;;;5036415;28;20560;-78
2023/05/07 02:43:13;;;;;;;3.03;2.10;;;;;;;;;;5026145;28;20030;-72
2023/05/07 02:45:38;;;;;;;4.25;2.33;;;;;;;;;;5018721;28;20085;-73
2023/05/07 02:48:05;;;;;;;3.57;2.30;;;;;;;;;;5009058;28;20370;-63
2023/05/07 02:50:30;;;;;;;2.65;2.13;;;;;;;;;;5023251;28;20632;-66
2023/05/07 02:52:55;;;;;;;2.87;2.00;;;;;;;;;;5022691;28;20049;-70
2023/05/07 02:55:21;;;;;;;2.93;2.30;;;;;;;;;;5022337;28;20783;-68
2023/05/07 02:57:46;;;;;;;3.00;2.20;;;;;;;;;;5024686;28;20735;-72
2023/05/07 03:00:12;;;;;;;2.90;2.13;;;;;;;;;;5041699;28;20038;-74
2023/05/07 03:02:37;;;;;;;2.97;2.10;;;;;;;;;;5022339;28;20283;-70
2023/05/07 03:05:03;;;;;;;2.80;2.10;;;;;;;;;;5041378;28;20045;-73
2023/05/07 03:07:28;;;;;;;3.13;2.10;;;;;;;;;;5043121;28;20302;-73
2023/05/07 03:09:54;;;;;;;2.40;1.83;;;;;;;;;;5016266;28;20118;-67
2023/05/07 03:12:19;;;;;;;3.05;2.30;;;;;;;;;;5025642;28;20284;-67
2023/05/07 03:14:44;;;;;;;3.30;2.40;;;;;;;;;;5026335;28;20610;-71
2023/05/07 03:17:09;;;;;;;2.97;2.20;;;;;;;;;;5034849;28;20280;-67
2023/05/07 03:19:35;;;;;;;2.80;2.10;;;;;;;;;;5042806;28;20288;-68
2023/05/07 03:22:00;;;;;;;3.47;2.33;;;;;;;;;;5032945;28;20045;-73
2023/05/07 03:24:25;;;;;;;2.87;2.20;;;;;;;;;;5023707;28;20056;-73
2023/05/07 03:26:50;;;;;;;3.17;2.33;;;;;;;;;;5034775;28;20363;-73
2023/05/07 03:29:15;;;;;;;3.83;2.40;;;;;;;;;;5035399;28;20338;-72
2023/05/07 03:31:41;;;;;;;3.17;2.50;;;;;;;;;;5008460;28;20276;-69
2023/05/07 03:34:06;;;;;;;3.23;2.30;;;;;;;;;;5023288;28;20412;-76
2023/05/07 03:36:31;;;;;;;3.27;2.30;;;;;;;;;;5053752;28;20310;-65
2023/05/07 03:38:56;;;;;;;2.60;2.00;;;;;;;;;;5046468;28;20036;-75
2023/05/07 03:41:22;;;;;;;3.53;2.07;;;;;;;;;;5046062;28;20033;-64
2023/05/07 03:43:47;;;;;;;2.87;1.90;;;;;;;;;;5042984;28;20287;-68
2023/05/07 03:46:12;;;;;;;2.60;2.07;;;;;;;;;;5050338;28;20056;-64
2023/05/07 03:48:37;;;;;;;2.85;2.20;;;;;;;;;;5048484;28;20271;-70
2023/05/07 03:51:03;;;;;;;2.92;2.20;;;;;;;;;;5049187;28;20524;-67
2023/05/07 03:53:28;;;;;;;2.65;2.05;;;;;;;;;;5051673;28;20063;-64
2023/05/07 03:55:53;;;;;;;3.38;2.60;;;;;;;;;;5052415;28;20029;-67
2023/05/07 03:58:18;;;;;;;3.57;2.37;;;;;;;;;;5048858;28;20032;-71
2023/05/07 04:00:44;;;;;;;3.20;2.33;;;;;;;;;;5046095;28;20045;-68
2023/05/07 04:03:09;;;;;;;2.40;2.00;;;;;;;;;;5048555;28;20063;-70
2023/05/07 04:05:34;;;;;;;3.37;2.50;;;;;;;;;;5051201;28;20870;-66
2023/05/07 04:07:59;;;;;;;3.10;2.23;;;;;;;;;;5048420;28;20694;-70
2023/05/07 04:10:25;;;;;;;3.40;2.38;;;;;;;;;;5049010;28;20647;-69
2023/05/07 04:12:50;;;;;;;2.50;2.10;;;;;;;;;;5035193;28;20382;-71
2023/05/07 04:15:15;;;;;;;2.90;2.27;;;;;;;;;;5047216;28;20044;-73
2023/05/07 04:17:41;;;;;;;3.87;2.70;;;;;;;;;;5050679;28;20366;-71
2023/05/07 04:20:08;;;;;;;2.92;2.30;;;;;;;;;;5049283;28;20279;-74
2023/05/07 04:22:33;;;;;;;2.95;2.47;;;;;;;;;;5026558;28;20052;-67
2023/05/07 04:25:00;;;;;;;2.53;2.10;;;;;;;;;;5044317;28;20382;-61
2023/05/07 04:27:26;;;;;;;2.53;2.30;;;;;;;;;;5036949;23;20068;-71
2023/05/07 04:29:51;;;;;;;2.55;2.10;;;;;;;;;;5000515;28;20175;-67
2023/05/07 04:32:17;;;;;;;3.30;2.00;;;;;;;;;;4988061;28;20550;-63
2023/05/07 04:34:42;;;;;;;3.45;2.47;;;;;;;;;;5008080;28;20300;-67
2023/05/07 04:37:08;;;;;;;3.70;2.40;;;;;;;;;;5006363;28;20030;-65
2023/05/07 04:39:35;;;;;;;3.47;2.60;;;;;;;;;;5021200;28;20518;-64
2023/05/07 04:42:00;;;;;;;2.90;2.28;;;;;;;;;;5008504;28;20137;-68
2023/05/07 04:44:25;;;;;;;4.82;2.72;;;;;;;;;;5026285;28;20120;-65
2023/05/07 04:46:50;;;;;;;4.37;2.63;;;;;;;;;;5040180;22;20049;-69
2023/05/07 04:49:16;;;;;;;4.10;2.42;;;;;;;;;;5000340;28;20285;-67
2023/05/07 04:51:42;;;;;;;2.93;2.30;;;;;;;;;;5003494;28;20053;-65
2023/05/07 04:54:07;;;;;;;4.28;2.75;;;;;;;;;;4997508;28;20809;-73
2023/05/07 04:56:33;;;;;;;3.25;2.38;;;;;;;;;;5001024;28;20423;-64
2023/05/07 04:58:58;;;;;;;2.80;2.40;;;;;;;;;;5004429;28;20533;-68
2023/05/07 05:01:23;;;;;;;2.83;2.28;;;;;;;;;;4975211;28;20057;-59
2023/05/07 05:03:49;;;;;;;3.70;2.33;;;;;;;;;;5009532;28;20531;-59
2023/05/07 05:06:14;;;;;;;3.17;2.40;;;;;;;;;;4998391;28;20327;-61
2023/05/07 05:08:39;;;;;;;2.87;2.57;;;;;;;;;;4989610;28;20128;-63
2023/05/07 05:11:05;;;;;;;3.28;2.60;;;;;;;;;;4989742;28;20317;-61
2023/05/07 05:13:30;;;;;;;3.30;2.60;;;;;;;;;;4988396;28;20141;-61
2023/05/07 05:15:55;;;;;;;4.07;2.60;;;;;;;;;;5024486;28;20060;-63
2023/05/07 05:18:27;;;;;;;3.33;2.20;;;;;;;;;;4997552;28;20060;-59
2023/05/07 05:20:52;;;;;;;2.70;2.17;;;;;;;;;;4990134;28;20512;-62
2023/05/07 05:23:17;;;;;;;3.70;2.70;;;;;;;;;;5008035;28;20034;-61
2023/05/07 05:25:42;;;;;;;3.43;2.57;;;;;;;;;;5023213;28;20803;-63
2023/05/07 05:28:08;;;;;;;3.40;2.30;;;;;;;;;;5007104;28;20729;-60
2023/05/07 05:30:33;;;;;;;2.85;2.35;;;;;;;;;;4995826;28;20138;-59
2023/05/07 05:32:58;;;;;;;4.65;2.70;;;;;;;;;;4988813;28;20456;-60
2023/05/07 05:35:24;;;;;;;3.38;2.50;;;;;;;;;;4987948;28;20469;-57
2023/05/07 05:37:49;;;;;;;3.53;2.50;;;;;;;;;;4989610;28;20353;-59
2023/05/07 05:40:14;;;;;;;4.18;2.63;;;;;;;;;;4989414;28;20167;-59
2023/05/07 05:42:40;;;;;;;4.13;2.95;;;;;;;;;;4998021;28;20079;-61
2023/05/07 05:45:05;;;;;;;6.60;3.90;;;;;;;;;;4991342;28;20042;-63
2023/05/07 05:47:31;;;;;;;5.38;4.18;;;;;;;;;;4988309;28;20046;-63
2023/05/07 05:49:56;;;;;;;5.47;4.27;;;;;;;;;;5020177;28;20436;-56
2023/05/07 05:52:28;;;;;;;4.95;4.22;;;;;;;;;;4988430;28;20335;-58
2023/05/07 05:54:53;;;;;;;6.28;4.65;;;;;;;;;;5021109;28;20069;-61
2023/05/07 05:57:18;;;;;;;6.13;5.13;;;;;;;;;;4998628;28;20112;-61
2023/05/07 05:59:44;;;;;;;6.90;4.97;;;;;;;;;;4994601;28;20046;-58
2023/05/07 06:02:09;;;;;;;7.35;5.25;;;;;;;;;;5001507;28;20847;-62
2023/05/07 06:04:35;;;;;;;8.47;5.53;;;;;;;;;;4994164;28;20045;-58
2023/05/07 06:07:00;;;;;;;6.25;5.38;;;;;;;;;;4993339;28;20285;-58
2023/05/07 06:09:25;;;;;;;6.78;5.05;;;;;;;;;;4979673;28;20034;-60
2023/05/07 06:11:51;;;;;;;7.95;5.65;;;;;;;;;;4992377;28;20037;-62
2023/05/07 06:14:16;;;;;;;6.60;5.33;;;;;;;;;;5000738;28;20109;-59
2023/05/07 06:16:41;;;;;;;7.00;5.10;;;;;;;;;;5026497;28;20315;-60
2023/05/07 06:19:07;;;;;;;7.38;5.10;;;;;;;;;;4999401;28;20061;-62
2023/05/07 06:21:32;;;;;;;7.97;4.88;;;;;;;;;;4994134;28;20096;-60
2023/05/07 06:23:57;;;;;;;6.05;4.15;;;;;;;;;;4997083;28;20442;-57
2023/05/07 06:26:22;;;;;;;8.67;4.77;;;;;;;;;;4992157;28;20315;-59
2023/05/07 06:28:48;;;;;;;5.83;4.33;;;;;;;;;;4992683;28;20710;-58
2023/05/07 06:31:17;;;;;;;5.27;4.23;;;;;;;;;;5006416;28;20534;-58
2023/05/07 06:33:44;;;;;;;5.68;4.53;;;;;;;;;;5010185;28;20349;-61
2023/05/07 06:36:09;;;;;;;5.15;3.85;;;;;;;;;;5008758;28;20042;-58
2023/05/07 06:38:35;;;;;;;5.05;3.95;;;;;;;;;;5006941;28;20030;-63
2023/05/07 06:41:00;;;;;;;6.33;4.13;;;;;;;;;;4995808;28;20038;-57
2023/05/07 06:43:25;;;;;;;6.23;4.30;;;;;;;;;;4992820;28;20289;-62
2023/05/07 06:45:50;;;;;;;4.80;3.87;;;;;;;;;;4969860;28;20836;-61
2023/05/07 06:48:16;;;;;;;6.88;4.05;;;;;;;;;;4976413;28;20612;-59
2023/05/07 06:50:41;;;;;;;5.72;4.10;;;;;;;;;;4986243;28;20057;-58
2023/05/07 06:53:06;;;;;;;4.90;3.65;;;;;;;;;;4973880;28;20560;-59
2023/05/07 06:55:32;;;;;;;5.20;3.60;;;;;;;;;;4991115;28;20049;-61
2023/05/07 06:58:00;;;;;;;5.40;3.72;;;;;;;;;;4991848;28;20296;-63
2023/05/07 07:00:26;;;;;;;9.70;6.00;;;;;;;;;;4975718;28;20042;-69
2023/05/07 07:02:51;;;;;;;6.45;4.28;;;;;;;;;;5009227;28;21016;-59
2023/05/07 07:05:16;;;;;;;5.73;4.23;;;;;;;;;;4980555;28;20046;-63
2023/05/07 07:07:41;;;;;;;6.53;4.25;;;;;;;;;;4990764;28;20388;-57
2023/05/07 07:10:07;;;;;;;4.70;3.80;;;;;;;;;;4991780;28;20046;-65
2023/05/07 07:12:32;;;;;;;5.22;3.90;;;;;;;;;;4991551;28;20045;-60
2023/05/07 07:14:57;;;;;;;8.30;4.53;;;;;;;;;;4987716;28;20509;-60
2023/05/07 07:17:22;;;;;;;4.53;3.70;;;;;;;;;;4989928;28;20480;-62
2023/05/07 07:19:48;;;;;;;5.23;4.00;;;;;;;;;;4991544;28;20288;-60
2023/05/07 07:22:13;;;;;;;3.97;3.53;;;;;;;;;;4992194;28;20370;-56
2023/05/07 07:24:38;;;;;;;4.40;3.55;;;;;;;;;;4991323;28;20108;-59
2023/05/07 07:27:03;;;;;;;4.55;3.70;;;;;;;;;;4990537;28;20038;-62
2023/05/07 07:29:29;;;;;;;5.10;4.03;;;;;;;;;;5022733;28;20034;-64
2023/05/07 07:31:54;;;;;;;5.03;3.50;;;;;;;;;;4994447;28;20140;-63
2023/05/07 07:34:19;;;;;;;4.60;3.28;;;;;;;;;;4991677;28;20129;-63
2023/05/07 07:39:48;;;;;;;3.75;3.20;;;;;;;;;;4973515;22;20061;-64
2023/05/07 07:42:13;;;;;;;5.15;3.83;;;;;;;;;;4989114;28;20047;-61
2023/05/07 07:44:39;;;;;;;4.18;3.30;;;;;;;;;;5011786;23;20100;-61
2023/05/07 07:47:04;;;;;;;5.05;3.90;;;;;;;;;;4989286;28;20844;-61
2023/05/07 07:49:30;;;;;;;4.68;3.15;;;;;;;;;;5026238;28;20041;-58
2023/05/07 07:51:56;;;;;;;4.30;3.53;;;;;;;;;;5013378;28;20113;-58
2023/05/07 07:54:21;;;;;;;4.68;3.50;;;;;;;;;;5019141;28;20296;-61
2023/05/07 07:56:47;;;;;;;5.45;3.60;;;;;;;;;;5013323;28;20013;-63
2023/05/07 07:59:14;;;;;;;4.43;3.35;;;;;;;;;;5016317;22;20477;-61
2023/05/07 08:01:39;;;;;;;4.30;3.63;;;;;;;;;;4986062;28;20014;-65
2023/05/07 08:04:05;;;;;;;4.10;3.40;;;;;;;;;;4991012;28;20084;-62
2023/05/07 08:06:30;;;;;;;4.65;3.30;;;;;;;;;;4988380;28;20344;-70
2023/05/07 08:08:56;;;;;;;5.20;3.45;;;;;;;;;;4983654;28;20092;-66
2023/05/07 08:11:21;;;;;;;3.93;3.20;;;;;;;;;;4966152;28;20057;-60
2023/05/07 08:13:46;;;;;;;4.88;3.55;;;;;;;;;;4991676;22;20525;-66
2023/05/07 08:16:12;;;;;;;4.22;3.10;;;;;;;;;;4990422;28;20498;-61
2023/05/07 08:18:37;;;;;;;4.35;3.50;;;;;;;;;;5000738;28;21680;-64
2023/05/07 08:21:02;;;;;;;6.05;4.22;;;;;;;;;;4993658;28;20471;-56
2023/05/07 08:23:28;;;;;;;4.32;3.45;;;;;;;;;;5001127;28;20056;-58
2023/05/07 08:25:53;;;;;;;4.17;2.90;;;;;;;;;;5011740;28;20100;-60
2023/05/07 08:28:19;;;;;;;4.75;3.63;;;;;;;;;;5006908;28;20351;-60
2023/05/07 08:30:45;;;;;;;4.70;3.30;;;;;;;;;;4995877;28;20033;-56
2023/05/07 08:33:10;;;;;;;5.43;3.35;;;;;;;;;;4991981;28;20134;-57
2023/05/07 08:35:35;;;;;;;4.72;3.45;;;;;;;;;;4996686;28;20577;-60
2023/05/07 08:38:01;;;;;;;4.88;3.40;;;;;;;;;;4986725;28;20060;-62
2023/05/07 08:40:26;;;;;;;4.20;3.33;;;;;;;;;;4956663;28;20071;-57
2023/05/07 08:42:52;;;;;;;7.15;3.65;;;;;;;;;;4998586;28;20286;-63
2023/05/07 08:45:17;;;;;;;4.25;3.40;;;;;;;;;;5000630;28;20147;-60
2023/05/07 08:47:44;;;;;;;4.10;3.33;;;;;;;;;;5001631;28;20127;-59
2023/05/07 08:50:10;;;;;;;4.07;3.33;;;;;;;;;;4990369;28;21802;-56
2023/05/07 08:52:35;;;;;;;3.72;3.13;;;;;;;;;;4994137;28;20058;-57
2023/05/07 08:55:01;;;;;;;4.57;3.40;;;;;;;;;;4995432;28;20064;-57
2023/05/07 08:57:26;;;;;;;3.97;3.38;;;;;;;;;;4994147;28;20413;-58
2023/05/07 08:59:51;;;;;;;5.17;3.60;;;;;;;;;;4987835;28;20038;-55
2023/05/07 09:02:17;;;;;;;4.17;3.50;;;;;;;;;;4969004;28;20096;-58
2023/05/07 09:04:43;;;;;;;4.65;3.70;;;;;;;;;;5002752;28;20271;-60
2023/05/07 09:07:08;;;;;;;4.57;3.50;;;;;;;;;;5027512;28;20052;-56
2023/05/07 09:09:33;;;;;;;4.30;3.33;;;;;;;;;;5007192;28;20071;-59
2023/05/07 09:11:59;;;;;;;5.45;3.72;;;;;;;;;;5026924;28;20037;-61
2023/05/07 09:14:24;;;;;;;6.13;3.85;;;;;;;;;;5025442;28;20045;-58
2023/05/07 09:16:51;;;;;;;3.90;3.10;;;;;;;;;;5021991;28;20128;-58
2023/05/07 09:19:18;;;;;;;3.72;3.20;;;;;;;;;;5023269;28;20097;-55
2023/05/07 09:21:43;;;;;;;4.57;3.70;;;;;;;;;;5021271;28;20025;-56
2023/05/07 09:24:09;;;;;;;5.00;3.50;;;;;;;;;;5025700;28;20598;-62
2023/05/07 09:26:34;;;;;;;5.18;3.38;;;;;;;;;;5009804;28;20514;-59
2023/05/07 09:28:59;;;;;;;5.70;3.50;;;;;;;;;;5023702;28;20091;-59
2023/05/07 09:31:25;;;;;;;4.07;3.43;;;;;;;;;;5030079;28;20033;-60
2023/05/07 09:33:52;;;;;;;4.80;3.58;;;;;;;;;;5008602;28;20806;-61
2023/05/07 09:36:17;;;;;;;5.50;3.60;;;;;;;;;;5010327;28;20033;-59
2023/05/07 09:38:42;;;;;;;4.83;3.30;;;;;;;;;;5012857;28;20036;-57
2023/05/07 09:41:09;;;;;;;4.80;3.33;;;;;;;;;;5006181;28;20291;-64
2023/05/07 09:43:34;;;;;;;4.05;3.25;;;;;;;;;;5028988;28;20356;-61
2023/05/07 09:46:07;;;;;;;4.63;3.28;;;;;;;;;;5028874;28;20895;-60
2023/05/07 09:48:34;;;;;;;5.82;3.88;;;;;;;;;;5009628;28;20060;-60
2023/05/07 09:51:01;;;;;;;5.05;3.47;;;;;;;;;;5015914;28;20025;-58
2023/05/07 09:53:26;;;;;;;4.38;3.10;;;;;;;;;;5024700;28;20048;-58
2023/05/07 09:55:52;;;;;;;4.93;3.70;;;;;;;;;;5013032;28;20964;-62
2023/05/07 09:58:18;;;;;;;4.60;3.30;;;;;;;;;;5029694;28;20044;-61
2023/05/07 10:00:43;;;;;;;4.85;3.40;;;;;;;;;;5010687;28;21141;-61
2023/05/07 10:03:08;;;;;;;6.40;3.67;;;;;;;;;;5022682;28;20033;-56
2023/05/07 10:05:33;;;;;;;5.07;3.43;;;;;;;;;;5009594;28;21000;-60
2023/05/07 10:07:59;;;;;;;4.60;3.30;;;;;;;;;;5010331;28;21281;-58
2023/05/07 10:10:24;;;;;;;5.57;3.05;;;;;;;;;;5015391;28;20283;-59
2023/05/07 10:12:49;;;;;;;4.85;3.20;;;;;;;;;;5007254;28;20041;-58
2023/05/07 10:15:14;;;;;;;4.07;3.20;;;;;;;;;;5026863;28;20532;-60
2023/05/07 10:17:40;;;;;;;3.90;2.53;;;;;;;;;;5009804;28;20275;-57
2023/05/07 10:20:05;;;;;;;3.83;2.80;;;;;;;;;;5004994;28;20346;-63
2023/05/07 10:22:42;;;;;;;3.33;2.55;;;;;;;;;;5029970;28;20056;-61
2023/05/07 10:25:10;;;;;;;4.18;3.03;;;;;;;;;;5028383;28;20582;-61
2023/05/07 10:27:36;;;;;;;3.97;2.75;;;;;;;;;;5042346;28;20033;-61
2023/05/07 10:30:01;;;;;;;5.30;3.10;;;;;;;;;;5012860;28;20040;-61
2023/05/07 10:32:38;;;;;;;3.33;2.75;;;;;;;;;;5030473;28;20272;-56
2023/05/07 10:35:04;;;;;;;4.45;2.72;;;;;;;;;;5022636;28;20052;-60
2023/05/07 10:37:30;;;;;;;4.88;3.00;;;;;;;;;;5013009;28;20086;-58
2023/05/07 10:39:55;;;;;;;3.57;2.80;;;;;;;;;;5029392;28;20814;-62
2023/05/07 10:42:20;;;;;;;4.03;2.90;;;;;;;;;;5007772;28;20291;-60
2023/05/07 10:44:45;;;;;;;4.45;2.80;;;;;;;;;;5023091;28;20036;-58
2023/05/07 10:47:11;;;;;;;3.58;2.80;;;;;;;;;;5027125;28;20033;-60
2023/05/07 10:49:51;;;;;;;4.60;2.72;;;;;;;;;;5007643;28;20502;-59
2023/05/07 10:52:17;;;;;;;3.45;2.75;;;;;;;;;;5006621;28;20022;-60
2023/05/07 10:54:44;;;;;;;3.78;3.00;;;;;;;;;;5028880;28;20045;-60
2023/05/07 10:57:28;;;;;;;5.10;2.90;;;;;;;;;;5028524;28;20116;-60
2023/05/07 10:59:53;;;;;;;3.22;2.70;;;;;;;;;;5026109;28;20067;-55
2023/05/07 11:02:18;;;;;;;4.10;3.13;;;;;;;;;;5024857;28;20029;-60
2023/05/07 11:04:44;;;;;;;4.50;2.88;;;;;;;;;;5022622;28;20037;-58
2023/05/07 11:07:25;;;;;;;3.20;2.50;;;;;;;;;;5027935;28;20037;-56
2023/05/07 11:09:51;;;;;;;5.55;3.20;;;;;;;;;;5015495;28;20402;-59
2023/05/07 11:12:16;;;;;;;3.80;2.72;;;;;;;;;;5030818;28;20048;-62
2023/05/07 11:14:44;;;;;;;4.13;2.80;;;;;;;;;;5020495;28;20452;-60
2023/05/07 11:17:10;;;;;;;3.97;2.90;;;;;;;;;;5028692;28;20657;-60
2023/05/07 11:19:48;;;;;;;3.83;2.60;;;;;;;;;;5022356;28;20037;-63
2023/05/07 11:22:31;;;;;;;4.63;3.10;;;;;;;;;;5028853;28;20298;-59
2023/05/07 11:24:57;;;;;;;5.75;3.30;;;;;;;;;;5007648;28;20098;-70
2023/05/07 11:27:23;;;;;;;3.55;3.20;;;;;;;;;;5022469;28;20068;-57
2023/05/07 11:29:48;;;;;;;6.13;3.40;;;;;;;;;;5021011;28;20667;-59
2023/05/07 11:32:14;;;;;;;4.63;3.30;;;;;;;;;;5026196;28;20112;-59
2023/05/07 11:34:39;;;;;;;5.80;3.40;;;;;;;;;;5004697;28;20379;-59
2023/05/07 11:37:04;;;;;;;6.32;3.20;;;;;;;;;;5011298;28;21614;-56
2023/05/07 11:39:31;;;;;;;6.25;3.35;;;;;;;;;;5012627;28;20092;-58
2023/05/07 11:41:56;;;;;;;3.80;3.45;;;;;;;;;;5018950;28;20060;-54
2023/05/07 11:44:22;;;;;;;5.35;3.13;;;;;;;;;;4995861;28;20044;-59
2023/05/07 11:46:47;;;;;;;7.10;3.08;;;;;;;;;;5001642;28;20055;-56
2023/05/07 11:49:12;;;;;;;4.45;3.28;;;;;;;;;;5020883;28;20546;-60
2023/05/07 11:51:38;;;;;;;3.97;3.13;;;;;;;;;;5013120;28;20037;-58
2023/05/07 11:54:03;;;;;;;4.43;3.03;;;;;;;;;;5022370;28;20073;-59
2023/05/07 11:56:29;;;;;;;3.80;3.15;;;;;;;;;;4994597;28;20270;-61
2023/05/07 11:58:54;;;;;;;4.32;3.22;;;;;;;;;;5017236;28;20033;-64
2023/05/07 12:01:20;;;;;;;4.03;2.88;;;;;;;;;;5001885;28;20071;-57
2023/05/07 12:03:48;;;;;;;4.30;3.00;;;;;;;;;;5000661;28;20030;-58
2023/05/07 12:06:14;;;;;;;5.75;3.25;;;;;;;;;;5003415;28;20044;-58
2023/05/07 12:08:40;;;;;;;4.50;3.10;;;;;;;;;;5022086;28;20033;-58
2023/05/07 12:11:35;;;;;;;4.65;3.30;;;;;;;;;;5023930;28;20102;-57
2023/05/07 12:14:00;;;;;;;3.80;3.00;;;;;;;;;;5006730;28;20758;-63
2023/05/07 12:16:26;;;;;;;4.00;2.70;;;;;;;;;;5011099;28;20765;-57
2023/05/07 12:18:52;;;;;;;5.13;3.20;;;;;;;;;;5004666;28;20449;-58
2023/05/07 12:21:17;;;;;;;3.67;2.90;;;;;;;;;;5011971;28;20497;-60
2023/05/07 12:23:43;;;;;;;4.07;3.40;;;;;;;;;;5015123;28;20044;-60
2023/05/07 12:26:08;;;;;;;3.33;2.70;;;;;;;;;;5002064;28;20292;-60
2023/05/07 12:28:37;;;;;;;3.72;2.70;;;;;;;;;;4988734;28;20040;-57
2023/05/07 12:31:02;;;;;;;4.82;3.10;;;;;;;;;;4994540;28;20455;-58
2023/05/07 12:33:28;;;;;;;3.93;2.97;;;;;;;;;;5003536;28;20091;-60
2023/05/07 12:35:54;;;;;;;4.00;2.80;;;;;;;;;;5006651;28;21456;-57
2023/05/07 12:38:19;;;;;;;5.20;3.22;;;;;;;;;;5007891;28;20033;-57
2023/05/07 12:40:45;;;;;;;3.42;2.70;;;;;;;;;;5013202;28;20041;-61
2023/05/07 12:43:17;;;;;;;3.60;2.80;;;;;;;;;;5014966;28;20033;-59
2023/05/07 12:45:42;;;;;;;3.88;2.72;;;;;;;;;;5011068;28;20033;-59
2023/05/07 12:48:09;;;;;;;3.40;2.60;;;;;;;;;;5005376;28;20044;-60
2023/05/07 12:50:34;;;;;;;3.85;2.75;;;;;;;;;;5006572;28;20283;-62
2023/05/07 12:52:59;;;;;;;3.25;2.42;;;;;;;;;;5008966;28;20699;-60
2023/05/07 12:55:25;;;;;;;3.30;2.45;;;;;;;;;;5005791;28;20111;-56
2023/05/07 12:57:51;;;;;;;2.90;2.42;;;;;;;;;;5023991;28;20039;-61
2023/05/07 13:00:16;;;;;;;2.40;2.20;;;;;;;;;;5012532;28;20037;-58
2023/05/07 13:02:44;;;;;;;3.75;2.38;;;;;;;;;;5004603;28;21983;-58
2023/05/07 13:05:09;;;;;;;4.05;2.40;;;;;;;;;;5022944;28;20596;-64
2023/05/07 13:07:34;;;;;;;3.38;2.30;;;;;;;;;;5003543;28;20041;-59
2023/05/07 13:10:00;;;;;;;4.40;2.40;;;;;;;;;;5011529;28;20668;-59
2023/05/07 13:12:25;;;;;;;3.20;2.20;;;;;;;;;;5011800;28;20041;-57
2023/05/07 13:14:50;;;;;;;3.10;2.22;;;;;;;;;;5032648;28;20220;-56
2023/05/07 13:17:18;;;;;;;4.43;3.15;;;;;;;;;;5007695;28;20044;-60
2023/05/07 13:19:43;;;;;;;3.13;2.53;;;;;;;;;;5015678;28;20048;-62
2023/05/07 13:22:09;;;;;;;3.40;2.50;;;;;;;;;;5029081;28;20525;-59
2023/05/07 13:24:34;;;;;;;2.50;2.25;;;;;;;;;;5008166;28;21007;-64
2023/05/07 13:26:59;;;;;;;3.92;2.17;;;;;;;;;;5005136;28;20124;-56
2023/05/07 13:29:28;;;;;;;4.20;2.00;;;;;;;;;;5006175;28;20199;-61
2023/05/07 13:31:56;;;;;;;3.85;2.38;;;;;;;;;;5028868;28;20096;-57
2023/05/07 13:34:21;;;;;;;2.58;2.10;;;;;;;;;;5025566;28;20068;-60
2023/05/07 13:36:47;;;;;;;2.80;2.37;;;;;;;;;;5015865;28;20065;-61
2023/05/07 13:39:12;;;;;;;4.33;2.30;;;;;;;;;;5000362;28;20291;-61
2023/05/07 13:41:37;;;;;;;3.55;2.75;;;;;;;;;;5022788;28;20700;-57
2023/05/07 13:44:03;;;;;;;4.37;2.43;;;;;;;;;;4984289;28;20336;-59
2023/05/07 13:46:29;;;;;;;3.85;2.63;;;;;;;;;;4990017;28;20304;-59
2023/05/07 13:48:54;;;;;;;3.30;2.80;;;;;;;;;;5035999;28;20041;-62
2023/05/07 13:51:20;;;;;;;3.58;2.40;;;;;;;;;;5031677;28;20090;-58
2023/05/07 13:53:45;;;;;;;3.67;2.60;;;;;;;;;;5025087;28;20037;-62
2023/05/07 13:56:10;;;;;;;5.73;2.83;;;;;;;;;;5001009;28;20956;-57
2023/05/07 13:58:36;;;;;;;3.90;2.80;;;;;;;;;;5032114;28;20406;-65
2023/05/07 14:01:01;;;;;;;4.45;2.80;;;;;;;;;;5004937;28;20299;-66
2023/05/07 14:03:26;;;;;;;3.03;2.38;;;;;;;;;;5032213;28;20539;-58
2023/05/07 14:05:52;;;;;;;3.35;2.65;;;;;;;;;;5022935;28;20512;-63
2023/05/07 14:08:19;;;;;;;3.83;2.60;;;;;;;;;;5018842;28;20044;-59
2023/05/07 14:10:45;;;;;;;6.32;2.80;;;;;;;;;;5022844;28;20299;-62
2023/05/07 14:13:11;;;;;;;6.22;2.67;;;;;;;;;;5003582;28;20385;-63
2023/05/07 14:15:37;;;;;;;5.45;2.58;;;;;;;;;;5002331;28;20165;-65
2023/05/07 14:18:02;;;;;;;3.03;2.40;;;;;;;;;;5004852;28;20048;-62
2023/05/07 14:20:28;;;;;;;4.85;2.25;;;;;;;;;;4986703;28;20502;-61
2023/05/07 14:22:53;;;;;;;4.55;2.70;;;;;;;;;;4995577;28;20378;-63
2023/05/07 14:25:18;;;;;;;3.03;2.50;;;;;;;;;;5006156;28;20705;-58
2023/05/07 14:27:43;;;;;;;3.20;2.10;;;;;;;;;;5006646;28;20041;-62
2023/05/07 14:30:09;;;;;;;5.60;2.57;;;;;;;;;;4991132;28;20124;-64
2023/05/07 14:32:34;;;;;;;2.65;2.40;;;;;;;;;;4986243;28;20156;-63
2023/05/07 14:35:00;;;;;;;4.97;2.38;;;;;;;;;;5002697;28;20040;-66
2023/05/07 14:37:25;;;;;;;2.97;2.22;;;;;;;;;;5002635;28;20143;-60